San Carlos, California
Current Conditions -  °F | °C
As of 8:47 AM on Saturday 20 Dec 2014 (Local Time) from KSQL Reporting Station
Haze Haze  
Wind Chill: 55°   Ceiling: 1600
Heat Index: 55°   Visibility: 4mi
Dew Point: 55°   Wind: 0mph
Humidity: 100%   Direction: NA
Pressure: 30.22"   Gusts: NA
Location:  37.5°N, 122.26°W
Report Text: KSQL 201647Z 00000KT 4SM BR BKN016 BKN023 OVC050 13/13 A3022
Loading
Personal Weather Stations






























Interactive Weather Map New forecast layout! Learn more

10-Day Weather Forecast

Advertisements
Track Severe Weather on mobile